sensor_id;sensor_type;location;lat;lon;timestamp;P1;durP1;ratioP1;P2;durP2;ratioP2
45650;SDS011;31365;48.858;8.530;2022-09-06T00:01:08;2.58;;;2.17;;
45650;SDS011;31365;48.858;8.530;2022-09-06T00:03:39;2.67;;;2.10;;
45650;SDS011;31365;48.858;8.530;2022-09-06T00:06:10;2.63;;;2.25;;
45650;SDS011;31365;48.858;8.530;2022-09-06T00:08:42;2.38;;;1.92;;
45650;SDS011;31365;48.858;8.530;2022-09-06T00:11:12;3.05;;;2.05;;
45650;SDS011;31365;48.858;8.530;2022-09-06T00:13:42;5.10;;;2.25;;
45650;SDS011;31365;48.858;8.530;2022-09-06T00:16:12;3.30;;;1.98;;
45650;SDS011;31365;48.858;8.530;2022-09-06T00:18:45;2.05;;;1.85;;
45650;SDS011;31365;48.858;8.530;2022-09-06T00:21:15;2.72;;;1.95;;
45650;SDS011;31365;48.858;8.530;2022-09-06T00:23:46;2.53;;;2.20;;
45650;SDS011;31365;48.858;8.530;2022-09-06T00:26:14;4.70;;;1.98;;
45650;SDS011;31365;48.858;8.530;2022-09-06T00:28:43;2.63;;;1.90;;
45650;SDS011;31365;48.858;8.530;2022-09-06T00:31:12;2.63;;;2.25;;
45650;SDS011;31365;48.858;8.530;2022-09-06T00:33:46;2.58;;;1.90;;
45650;SDS011;31365;48.858;8.530;2022-09-06T00:36:15;2.03;;;1.70;;
45650;SDS011;31365;48.858;8.530;2022-09-06T00:38:44;3.13;;;2.08;;
45650;SDS011;31365;48.858;8.530;2022-09-06T00:41:13;1.98;;;1.85;;
45650;SDS011;31365;48.858;8.530;2022-09-06T00:43:43;2.45;;;2.25;;
45650;SDS011;31365;48.858;8.530;2022-09-06T00:46:14;2.78;;;2.33;;
45650;SDS011;31365;48.858;8.530;2022-09-06T00:48:49;2.67;;;2.25;;
45650;SDS011;31365;48.858;8.530;2022-09-06T00:51:24;3.92;;;2.38;;
45650;SDS011;31365;48.858;8.530;2022-09-06T00:53:56;2.30;;;2.10;;
45650;SDS011;31365;48.858;8.530;2022-09-06T00:56:25;2.90;;;1.98;;
45650;SDS011;31365;48.858;8.530;2022-09-06T00:58:56;2.05;;;1.85;;
45650;SDS011;31365;48.858;8.530;2022-09-06T01:01:25;4.60;;;2.22;;
45650;SDS011;31365;48.858;8.530;2022-09-06T01:03:55;4.47;;;2.17;;
45650;SDS011;31365;48.858;8.530;2022-09-06T01:06:25;4.72;;;2.20;;
45650;SDS011;31365;48.858;8.530;2022-09-06T01:09:11;2.53;;;2.22;;
45650;SDS011;31365;48.858;8.530;2022-09-06T01:12:07;2.30;;;2.10;;
45650;SDS011;31365;48.858;8.530;2022-09-06T01:14:58;2.08;;;1.90;;
45650;SDS011;31365;48.858;8.530;2022-09-06T01:17:48;3.60;;;2.05;;
45650;SDS011;31365;48.858;8.530;2022-09-06T01:20:50;2.25;;;1.98;;
45650;SDS011;31365;48.858;8.530;2022-09-06T01:29:57;2.63;;;2.42;;
45650;SDS011;31365;48.858;8.530;2022-09-06T01:32:31;7.45;;;2.50;;
45650;SDS011;31365;48.858;8.530;2022-09-06T01:35:12;16.40;;;3.70;;
45650;SDS011;31365;48.858;8.530;2022-09-06T01:37:50;6.22;;;3.25;;
45650;SDS011;31365;48.858;8.530;2022-09-06T01:40:18;7.68;;;3.50;;
45650;SDS011;31365;48.858;8.530;2022-09-06T01:42:48;4.50;;;3.47;;
45650;SDS011;31365;48.858;8.530;2022-09-06T01:45:19;9.50;;;3.95;;
45650;SDS011;31365;48.858;8.530;2022-09-06T01:48:01;7.43;;;3.63;;
45650;SDS011;31365;48.858;8.530;2022-09-06T01:50:45;5.22;;;3.33;;
45650;SDS011;31365;48.858;8.530;2022-09-06T01:53:36;5.88;;;3.40;;
45650;SDS011;31365;48.858;8.530;2022-09-06T01:56:29;8.10;;;4.00;;
45650;SDS011;31365;48.858;8.530;2022-09-06T02:02:40;8.43;;;4.30;;
45650;SDS011;31365;48.858;8.530;2022-09-06T02:05:21;4.55;;;3.58;;
45650;SDS011;31365;48.858;8.530;2022-09-06T02:07:58;6.05;;;4.07;;
45650;SDS011;31365;48.858;8.530;2022-09-06T02:10:36;5.50;;;3.40;;
45650;SDS011;31365;48.858;8.530;2022-09-06T02:13:12;5.32;;;4.07;;
45650;SDS011;31365;48.858;8.530;2022-09-06T02:15:46;9.65;;;3.90;;
45650;SDS011;31365;48.858;8.530;2022-09-06T02:18:21;7.90;;;4.10;;
45650;SDS011;31365;48.858;8.530;2022-09-06T02:20:58;3.90;;;3.55;;
45650;SDS011;31365;48.858;8.530;2022-09-06T02:23:31;5.60;;;4.22;;
45650;SDS011;31365;48.858;8.530;2022-09-06T02:26:06;5.63;;;4.00;;
45650;SDS011;31365;48.858;8.530;2022-09-06T02:28:40;4.68;;;3.00;;
45650;SDS011;31365;48.858;8.530;2022-09-06T02:31:10;4.35;;;3.42;;
45650;SDS011;31365;48.858;8.530;2022-09-06T02:33:46;5.43;;;3.75;;
45650;SDS011;31365;48.858;8.530;2022-09-06T02:36:17;4.68;;;3.70;;
45650;SDS011;31365;48.858;8.530;2022-09-06T02:38:46;3.70;;;3.25;;
45650;SDS011;31365;48.858;8.530;2022-09-06T02:41:17;6.13;;;3.30;;
45650;SDS011;31365;48.858;8.530;2022-09-06T02:43:49;4.05;;;3.40;;
45650;SDS011;31365;48.858;8.530;2022-09-06T02:46:19;4.22;;;3.33;;
45650;SDS011;31365;48.858;8.530;2022-09-06T02:48:49;3.38;;;3.05;;
45650;SDS011;31365;48.858;8.530;2022-09-06T02:51:17;4.22;;;3.53;;
45650;SDS011;31365;48.858;8.530;2022-09-06T02:53:46;5.28;;;3.55;;
45650;SDS011;31365;48.858;8.530;2022-09-06T02:56:14;4.00;;;3.35;;
45650;SDS011;31365;48.858;8.530;2022-09-06T02:58:42;6.25;;;3.85;;
45650;SDS011;31365;48.858;8.530;2022-09-06T03:01:11;4.35;;;3.95;;
45650;SDS011;31365;48.858;8.530;2022-09-06T03:03:41;5.55;;;4.05;;
45650;SDS011;31365;48.858;8.530;2022-09-06T03:06:09;5.88;;;4.25;;
45650;SDS011;31365;48.858;8.530;2022-09-06T03:08:37;6.82;;;5.00;;
45650;SDS011;31365;48.858;8.530;2022-09-06T03:11:06;5.63;;;4.50;;
45650;SDS011;31365;48.858;8.530;2022-09-06T03:13:35;4.78;;;4.18;;
45650;SDS011;31365;48.858;8.530;2022-09-06T03:16:03;4.40;;;4.00;;
45650;SDS011;31365;48.858;8.530;2022-09-06T03:18:32;5.28;;;4.28;;
45650;SDS011;31365;48.858;8.530;2022-09-06T03:21:01;4.65;;;4.13;;
45650;SDS011;31365;48.858;8.530;2022-09-06T03:23:30;5.93;;;4.47;;
45650;SDS011;31365;48.858;8.530;2022-09-06T03:25:59;4.40;;;3.97;;
45650;SDS011;31365;48.858;8.530;2022-09-06T03:28:28;8.93;;;4.47;;
45650;SDS011;31365;48.858;8.530;2022-09-06T03:30:57;6.30;;;4.22;;
45650;SDS011;31365;48.858;8.530;2022-09-06T03:33:26;4.68;;;3.25;;
45650;SDS011;31365;48.858;8.530;2022-09-06T03:35:55;3.90;;;3.55;;
45650;SDS011;31365;48.858;8.530;2022-09-06T03:38:27;4.75;;;4.22;;
45650;SDS011;31365;48.858;8.530;2022-09-06T03:40:56;6.05;;;3.50;;
45650;SDS011;31365;48.858;8.530;2022-09-06T03:43:25;5.55;;;4.05;;
45650;SDS011;31365;48.858;8.530;2022-09-06T03:45:55;4.32;;;3.63;;
45650;SDS011;31365;48.858;8.530;2022-09-06T03:48:24;5.65;;;3.70;;
45650;SDS011;31365;48.858;8.530;2022-09-06T03:50:55;8.02;;;4.18;;
45650;SDS011;31365;48.858;8.530;2022-09-06T03:53:25;3.83;;;3.42;;
45650;SDS011;31365;48.858;8.530;2022-09-06T03:55:56;4.72;;;3.53;;
45650;SDS011;31365;48.858;8.530;2022-09-06T03:58:27;6.28;;;3.88;;
45650;SDS011;31365;48.858;8.530;2022-09-06T04:00:59;4.22;;;3.83;;
45650;SDS011;31365;48.858;8.530;2022-09-06T04:03:30;4.05;;;3.28;;
45650;SDS011;31365;48.858;8.530;2022-09-06T04:05:59;3.92;;;3.53;;
45650;SDS011;31365;48.858;8.530;2022-09-06T04:08:31;4.10;;;3.58;;
45650;SDS011;31365;48.858;8.530;2022-09-06T04:11:00;4.10;;;3.75;;
45650;SDS011;31365;48.858;8.530;2022-09-06T04:13:28;4.03;;;3.00;;
45650;SDS011;31365;48.858;8.530;2022-09-06T04:15:59;4.90;;;4.00;;
45650;SDS011;31365;48.858;8.530;2022-09-06T04:18:28;3.78;;;3.47;;
45650;SDS011;31365;48.858;8.530;2022-09-06T04:20:56;3.75;;;3.20;;
45650;SDS011;31365;48.858;8.530;2022-09-06T04:23:26;4.43;;;3.50;;
45650;SDS011;31365;48.858;8.530;2022-09-06T04:25:57;5.15;;;4.68;;
45650;SDS011;31365;48.858;8.530;2022-09-06T04:28:26;4.22;;;3.83;;
45650;SDS011;31365;48.858;8.530;2022-09-06T04:30:56;4.22;;;3.83;;
45650;SDS011;31365;48.858;8.530;2022-09-06T04:33:31;4.68;;;3.65;;
45650;SDS011;31365;48.858;8.530;2022-09-06T04:36:03;4.57;;;3.90;;
45650;SDS011;31365;48.858;8.530;2022-09-06T04:38:35;5.53;;;4.03;;
45650;SDS011;31365;48.858;8.530;2022-09-06T04:41:07;4.47;;;3.70;;
45650;SDS011;31365;48.858;8.530;2022-09-06T04:43:37;3.70;;;3.17;;
45650;SDS011;31365;48.858;8.530;2022-09-06T04:46:09;4.30;;;3.58;;
45650;SDS011;31365;48.858;8.530;2022-09-06T04:48:45;3.75;;;3.38;;
45650;SDS011;31365;48.858;8.530;2022-09-06T04:51:14;4.35;;;3.65;;
45650;SDS011;31365;48.858;8.530;2022-09-06T04:53:43;3.80;;;3.40;;
45650;SDS011;31365;48.858;8.530;2022-09-06T04:56:14;4.40;;;3.20;;
45650;SDS011;31365;48.858;8.530;2022-09-06T04:58:47;4.53;;;3.92;;
45650;SDS011;31365;48.858;8.530;2022-09-06T05:01:16;3.95;;;3.30;;
45650;SDS011;31365;48.858;8.530;2022-09-06T05:03:46;3.70;;;3.13;;
45650;SDS011;31365;48.858;8.530;2022-09-06T05:06:18;5.07;;;3.63;;
45650;SDS011;31365;48.858;8.530;2022-09-06T05:08:49;4.32;;;3.65;;
45650;SDS011;31365;48.858;8.530;2022-09-06T05:11:19;3.47;;;3.17;;
45650;SDS011;31365;48.858;8.530;2022-09-06T05:13:49;3.22;;;2.92;;
45650;SDS011;31365;48.858;8.530;2022-09-06T05:16:17;3.75;;;3.40;;
45650;SDS011;31365;48.858;8.530;2022-09-06T05:18:46;4.55;;;3.72;;
45650;SDS011;31365;48.858;8.530;2022-09-06T05:21:14;5.00;;;3.78;;
45650;SDS011;31365;48.858;8.530;2022-09-06T05:23:42;4.65;;;4.22;;
45650;SDS011;31365;48.858;8.530;2022-09-06T05:26:12;3.80;;;3.50;;
45650;SDS011;31365;48.858;8.530;2022-09-06T05:28:41;5.05;;;3.83;;
45650;SDS011;31365;48.858;8.530;2022-09-06T05:31:10;3.83;;;3.28;;
45650;SDS011;31365;48.858;8.530;2022-09-06T05:33:51;4.20;;;3.80;;
45650;SDS011;31365;48.858;8.530;2022-09-06T05:36:20;4.50;;;3.53;;
45650;SDS011;31365;48.858;8.530;2022-09-06T05:38:49;3.60;;;3.30;;
45650;SDS011;31365;48.858;8.530;2022-09-06T05:41:18;4.40;;;3.65;;
45650;SDS011;31365;48.858;8.530;2022-09-06T05:43:48;3.80;;;3.42;;
45650;SDS011;31365;48.858;8.530;2022-09-06T05:46:17;5.50;;;3.90;;
45650;SDS011;31365;48.858;8.530;2022-09-06T05:48:50;4.22;;;3.60;;
45650;SDS011;31365;48.858;8.530;2022-09-06T05:51:19;3.78;;;3.47;;
45650;SDS011;31365;48.858;8.530;2022-09-06T05:53:48;4.07;;;3.72;;
45650;SDS011;31365;48.858;8.530;2022-09-06T05:56:16;3.88;;;3.58;;
45650;SDS011;31365;48.858;8.530;2022-09-06T05:58:45;6.68;;;3.97;;
45650;SDS011;31365;48.858;8.530;2022-09-06T06:01:16;4.47;;;4.07;;
45650;SDS011;31365;48.858;8.530;2022-09-06T06:03:50;4.07;;;3.78;;
45650;SDS011;31365;48.858;8.530;2022-09-06T06:06:21;4.03;;;3.70;;
45650;SDS011;31365;48.858;8.530;2022-09-06T06:08:50;5.32;;;3.42;;
45650;SDS011;31365;48.858;8.530;2022-09-06T06:11:19;4.35;;;3.83;;
45650;SDS011;31365;48.858;8.530;2022-09-06T06:13:48;3.38;;;3.08;;
45650;SDS011;31365;48.858;8.530;2022-09-06T06:16:19;3.95;;;3.65;;
45650;SDS011;31365;48.858;8.530;2022-09-06T06:18:49;7.88;;;4.15;;
45650;SDS011;31365;48.858;8.530;2022-09-06T06:21:18;4.43;;;3.88;;
45650;SDS011;31365;48.858;8.530;2022-09-06T06:23:49;3.90;;;3.58;;
45650;SDS011;31365;48.858;8.530;2022-09-06T06:26:20;5.25;;;4.10;;
45650;SDS011;31365;48.858;8.530;2022-09-06T06:28:49;5.05;;;3.92;;
45650;SDS011;31365;48.858;8.530;2022-09-06T06:31:20;4.93;;;4.50;;
45650;SDS011;31365;48.858;8.530;2022-09-06T06:33:49;5.65;;;3.38;;
45650;SDS011;31365;48.858;8.530;2022-09-06T06:36:18;6.07;;;4.40;;
45650;SDS011;31365;48.858;8.530;2022-09-06T06:38:49;4.45;;;3.60;;
45650;SDS011;31365;48.858;8.530;2022-09-06T06:41:20;4.10;;;3.72;;
45650;SDS011;31365;48.858;8.530;2022-09-06T06:43:51;5.60;;;3.72;;
45650;SDS011;31365;48.858;8.530;2022-09-06T06:46:22;6.65;;;4.00;;
45650;SDS011;31365;48.858;8.530;2022-09-06T06:48:53;5.03;;;3.85;;
45650;SDS011;31365;48.858;8.530;2022-09-06T06:51:22;3.58;;;3.28;;
45650;SDS011;31365;48.858;8.530;2022-09-06T06:53:54;5.63;;;3.88;;
45650;SDS011;31365;48.858;8.530;2022-09-06T06:56:23;10.27;;;4.20;;
45650;SDS011;31365;48.858;8.530;2022-09-06T06:58:55;4.05;;;3.72;;
45650;SDS011;31365;48.858;8.530;2022-09-06T07:01:27;4.03;;;3.63;;
45650;SDS011;31365;48.858;8.530;2022-09-06T07:03:58;5.60;;;3.58;;
45650;SDS011;31365;48.858;8.530;2022-09-06T07:06:27;4.03;;;3.53;;
45650;SDS011;31365;48.858;8.530;2022-09-06T07:09:16;4.40;;;3.00;;
45650;SDS011;31365;48.858;8.530;2022-09-06T07:11:46;6.55;;;2.97;;
45650;SDS011;31365;48.858;8.530;2022-09-06T07:14:15;3.40;;;3.10;;
45650;SDS011;31365;48.858;8.530;2022-09-06T07:16:45;3.75;;;3.15;;
45650;SDS011;31365;48.858;8.530;2022-09-06T07:19:14;3.88;;;3.47;;
45650;SDS011;31365;48.858;8.530;2022-09-06T07:22:03;3.20;;;3.00;;
45650;SDS011;31365;48.858;8.530;2022-09-06T07:24:35;7.88;;;3.60;;
45650;SDS011;31365;48.858;8.530;2022-09-06T07:27:04;5.30;;;3.42;;
45650;SDS011;31365;48.858;8.530;2022-09-06T07:29:53;3.88;;;3.25;;
45650;SDS011;31365;48.858;8.530;2022-09-06T07:32:23;4.05;;;3.00;;
45650;SDS011;31365;48.858;8.530;2022-09-06T07:34:51;5.25;;;3.00;;
45650;SDS011;31365;48.858;8.530;2022-09-06T07:37:20;7.13;;;3.22;;
45650;SDS011;31365;48.858;8.530;2022-09-06T07:39:49;6.05;;;2.88;;
45650;SDS011;31365;48.858;8.530;2022-09-06T07:42:17;3.05;;;2.85;;
45650;SDS011;31365;48.858;8.530;2022-09-06T07:44:46;3.45;;;2.88;;
45650;SDS011;31365;48.858;8.530;2022-09-06T07:47:15;3.20;;;2.85;;
45650;SDS011;31365;48.858;8.530;2022-09-06T07:50:05;4.07;;;3.28;;
45650;SDS011;31365;48.858;8.530;2022-09-06T07:52:54;4.15;;;3.13;;
45650;SDS011;31365;48.858;8.530;2022-09-06T07:55:36;5.95;;;3.30;;
45650;SDS011;31365;48.858;8.530;2022-09-06T07:58:05;3.40;;;3.10;;
45650;SDS011;31365;48.858;8.530;2022-09-06T08:00:33;3.83;;;3.15;;
45650;SDS011;31365;48.858;8.530;2022-09-06T08:03:01;3.90;;;3.33;;
45650;SDS011;31365;48.858;8.530;2022-09-06T08:05:32;3.97;;;2.88;;
45650;SDS011;31365;48.858;8.530;2022-09-06T08:08:20;5.65;;;3.08;;
45650;SDS011;31365;48.858;8.530;2022-09-06T08:11:09;4.70;;;3.45;;
45650;SDS011;31365;48.858;8.530;2022-09-06T08:13:37;4.07;;;3.00;;
45650;SDS011;31365;48.858;8.530;2022-09-06T08:16:06;3.30;;;2.88;;
45650;SDS011;31365;48.858;8.530;2022-09-06T08:18:37;2.75;;;2.55;;
45650;SDS011;31365;48.858;8.530;2022-09-06T08:21:07;5.13;;;2.80;;
45650;SDS011;31365;48.858;8.530;2022-09-06T08:23:38;5.93;;;3.20;;
45650;SDS011;31365;48.858;8.530;2022-09-06T08:26:11;3.00;;;2.70;;
45650;SDS011;31365;48.858;8.530;2022-09-06T08:28:39;4.00;;;3.33;;
45650;SDS011;31365;48.858;8.530;2022-09-06T08:31:08;4.55;;;3.47;;
45650;SDS011;31365;48.858;8.530;2022-09-06T08:33:57;6.50;;;2.92;;
45650;SDS011;31365;48.858;8.530;2022-09-06T08:36:29;6.78;;;3.30;;
45650;SDS011;31365;48.858;8.530;2022-09-06T08:38:58;4.15;;;3.40;;
45650;SDS011;31365;48.858;8.530;2022-09-06T08:41:30;4.10;;;3.00;;
45650;SDS011;31365;48.858;8.530;2022-09-06T08:44:09;4.63;;;3.15;;
45650;SDS011;31365;48.858;8.530;2022-09-06T08:47:05;5.80;;;3.25;;
45650;SDS011;31365;48.858;8.530;2022-09-06T08:49:36;6.55;;;3.45;;
45650;SDS011;31365;48.858;8.530;2022-09-06T08:52:17;9.55;;;4.18;;
45650;SDS011;31365;48.858;8.530;2022-09-06T08:55:34;5.60;;;2.83;;
45650;SDS011;31365;48.858;8.530;2022-09-06T08:58:16;4.38;;;3.15;;
45650;SDS011;31365;48.858;8.530;2022-09-06T09:01:07;6.10;;;3.03;;
45650;SDS011;31365;48.858;8.530;2022-09-06T09:03:41;6.90;;;3.50;;
45650;SDS011;31365;48.858;8.530;2022-09-06T09:06:10;5.80;;;3.25;;
45650;SDS011;31365;48.858;8.530;2022-09-06T09:08:42;5.10;;;3.22;;
45650;SDS011;31365;48.858;8.530;2022-09-06T09:11:20;5.13;;;3.60;;
45650;SDS011;31365;48.858;8.530;2022-09-06T09:13:52;5.80;;;3.47;;
45650;SDS011;31365;48.858;8.530;2022-09-06T09:16:25;3.47;;;3.15;;
45650;SDS011;31365;48.858;8.530;2022-09-06T09:18:55;4.75;;;3.10;;
45650;SDS011;31365;48.858;8.530;2022-09-06T09:21:29;4.68;;;3.25;;
45650;SDS011;31365;48.858;8.530;2022-09-06T09:24:03;5.05;;;2.92;;
45650;SDS011;31365;48.858;8.530;2022-09-06T09:26:43;3.55;;;2.95;;
45650;SDS011;31365;48.858;8.530;2022-09-06T09:29:18;7.82;;;2.78;;
45650;SDS011;31365;48.858;8.530;2022-09-06T09:31:54;5.85;;;3.10;;
45650;SDS011;31365;48.858;8.530;2022-09-06T09:34:27;5.93;;;2.80;;
45650;SDS011;31365;48.858;8.530;2022-09-06T09:37:12;6.65;;;3.45;;
45650;SDS011;31365;48.858;8.530;2022-09-06T09:40:07;5.38;;;3.22;;
45650;SDS011;31365;48.858;8.530;2022-09-06T09:42:41;10.15;;;2.55;;
45650;SDS011;31365;48.858;8.530;2022-09-06T09:45:21;4.40;;;2.08;;
45650;SDS011;31365;48.858;8.530;2022-09-06T09:47:55;6.60;;;2.17;;
45650;SDS011;31365;48.858;8.530;2022-09-06T09:50:42;7.35;;;2.38;;
45650;SDS011;31365;48.858;8.530;2022-09-06T09:53:11;6.63;;;2.85;;
45650;SDS011;31365;48.858;8.530;2022-09-06T09:55:43;7.30;;;2.63;;
45650;SDS011;31365;48.858;8.530;2022-09-06T09:58:20;4.70;;;2.55;;
45650;SDS011;31365;48.858;8.530;2022-09-06T10:01:15;6.25;;;2.30;;
45650;SDS011;31365;48.858;8.530;2022-09-06T10:03:48;7.07;;;2.45;;
45650;SDS011;31365;48.858;8.530;2022-09-06T10:06:39;5.45;;;2.28;;
45650;SDS011;31365;48.858;8.530;2022-09-06T10:09:29;8.23;;;2.97;;
45650;SDS011;31365;48.858;8.530;2022-09-06T10:12:04;3.88;;;2.15;;
45650;SDS011;31365;48.858;8.530;2022-09-06T10:14:38;7.28;;;2.40;;
45650;SDS011;31365;48.858;8.530;2022-09-06T10:17:16;6.55;;;2.45;;
45650;SDS011;31365;48.858;8.530;2022-09-06T10:19:47;6.60;;;2.55;;
45650;SDS011;31365;48.858;8.530;2022-09-06T10:22:21;6.35;;;2.53;;
45650;SDS011;31365;48.858;8.530;2022-09-06T10:31:09;4.53;;;2.58;;
45650;SDS011;31365;48.858;8.530;2022-09-06T10:34:40;7.68;;;2.58;;
45650;SDS011;31365;48.858;8.530;2022-09-06T10:37:42;4.68;;;2.55;;
45650;SDS011;31365;48.858;8.530;2022-09-06T10:40:18;5.55;;;2.60;;
45650;SDS011;31365;48.858;8.530;2022-09-06T10:42:58;6.55;;;2.45;;
45650;SDS011;31365;48.858;8.530;2022-09-06T10:45:37;5.78;;;2.55;;
45650;SDS011;31365;48.858;8.530;2022-09-06T10:48:27;5.90;;;2.97;;
45650;SDS011;31365;48.858;8.530;2022-09-06T10:50:59;4.82;;;2.67;;
45650;SDS011;31365;48.858;8.530;2022-09-06T10:53:38;5.25;;;2.45;;
45650;SDS011;31365;48.858;8.530;2022-09-06T10:56:16;8.48;;;2.38;;
45650;SDS011;31365;48.858;8.530;2022-09-06T10:58:53;5.10;;;2.58;;
45650;SDS011;31365;48.858;8.530;2022-09-06T11:01:54;7.13;;;2.95;;
45650;SDS011;31365;48.858;8.530;2022-09-06T11:04:37;8.13;;;2.72;;
45650;SDS011;31365;48.858;8.530;2022-09-06T11:07:27;6.38;;;2.80;;
45650;SDS011;31365;48.858;8.530;2022-09-06T11:10:02;3.92;;;2.15;;
45650;SDS011;31365;48.858;8.530;2022-09-06T11:12:41;7.10;;;2.30;;
45650;SDS011;31365;48.858;8.530;2022-09-06T11:15:16;7.05;;;2.58;;
45650;SDS011;31365;48.858;8.530;2022-09-06T11:17:50;4.60;;;2.53;;
45650;SDS011;31365;48.858;8.530;2022-09-06T11:20:31;3.60;;;2.30;;
45650;SDS011;31365;48.858;8.530;2022-09-06T11:23:16;6.10;;;2.55;;
45650;SDS011;31365;48.858;8.530;2022-09-06T11:26:17;3.97;;;2.13;;
45650;SDS011;31365;48.858;8.530;2022-09-06T11:29:02;4.85;;;2.42;;
45650;SDS011;31365;48.858;8.530;2022-09-06T11:31:47;4.53;;;2.33;;
45650;SDS011;31365;48.858;8.530;2022-09-06T11:34:42;5.78;;;2.75;;
45650;SDS011;31365;48.858;8.530;2022-09-06T11:37:22;3.38;;;2.17;;
45650;SDS011;31365;48.858;8.530;2022-09-06T11:40:04;7.68;;;2.70;;
45650;SDS011;31365;48.858;8.530;2022-09-06T11:45:42;5.43;;;2.25;;
45650;SDS011;31365;48.858;8.530;2022-09-06T11:48:35;6.75;;;2.63;;
45650;SDS011;31365;48.858;8.530;2022-09-06T11:51:36;8.45;;;3.00;;
45650;SDS011;31365;48.858;8.530;2022-09-06T11:54:23;7.00;;;2.50;;
45650;SDS011;31365;48.858;8.530;2022-09-06T11:57:11;3.78;;;2.63;;
45650;SDS011;31365;48.858;8.530;2022-09-06T11:59:55;6.32;;;2.13;;
45650;SDS011;31365;48.858;8.530;2022-09-06T12:02:31;7.32;;;2.83;;
45650;SDS011;31365;48.858;8.530;2022-09-06T12:05:10;8.15;;;2.42;;
45650;SDS011;31365;48.858;8.530;2022-09-06T12:10:59;4.13;;;2.15;;
45650;SDS011;31365;48.858;8.530;2022-09-06T12:13:50;3.90;;;2.33;;
45650;SDS011;31365;48.858;8.530;2022-09-06T12:16:23;8.02;;;2.53;;
45650;SDS011;31365;48.858;8.530;2022-09-06T12:25:50;4.80;;;2.50;;
45650;SDS011;31365;48.858;8.530;2022-09-06T12:28:32;6.90;;;2.30;;
45650;SDS011;31365;48.858;8.530;2022-09-06T12:31:26;5.53;;;2.60;;
45650;SDS011;31365;48.858;8.530;2022-09-06T12:34:05;3.05;;;1.98;;
45650;SDS011;31365;48.858;8.530;2022-09-06T12:36:46;3.63;;;1.92;;
45650;SDS011;31365;48.858;8.530;2022-09-06T12:39:20;4.85;;;2.00;;
45650;SDS011;31365;48.858;8.530;2022-09-06T12:41:51;4.72;;;2.20;;
45650;SDS011;31365;48.858;8.530;2022-09-06T12:44:31;4.25;;;2.58;;
45650;SDS011;31365;48.858;8.530;2022-09-06T12:47:04;6.80;;;2.38;;
45650;SDS011;31365;48.858;8.530;2022-09-06T12:49:39;9.57;;;2.40;;
45650;SDS011;31365;48.858;8.530;2022-09-06T12:52:08;6.03;;;2.25;;
45650;SDS011;31365;48.858;8.530;2022-09-06T12:54:41;7.20;;;2.13;;
45650;SDS011;31365;48.858;8.530;2022-09-06T12:57:16;8.30;;;2.50;;
45650;SDS011;31365;48.858;8.530;2022-09-06T12:59:48;3.15;;;2.08;;
45650;SDS011;31365;48.858;8.530;2022-09-06T13:02:22;5.03;;;2.10;;
45650;SDS011;31365;48.858;8.530;2022-09-06T13:05:00;4.55;;;2.00;;
45650;SDS011;31365;48.858;8.530;2022-09-06T13:07:34;3.55;;;1.80;;
45650;SDS011;31365;48.858;8.530;2022-09-06T13:10:09;4.20;;;2.30;;
45650;SDS011;31365;48.858;8.530;2022-09-06T13:12:43;5.13;;;2.45;;
45650;SDS011;31365;48.858;8.530;2022-09-06T13:15:16;7.13;;;2.08;;
45650;SDS011;31365;48.858;8.530;2022-09-06T13:17:47;3.90;;;2.10;;
45650;SDS011;31365;48.858;8.530;2022-09-06T13:20:21;4.35;;;2.05;;
45650;SDS011;31365;48.858;8.530;2022-09-06T13:23:04;4.90;;;2.00;;
45650;SDS011;31365;48.858;8.530;2022-09-06T13:25:44;3.05;;;2.10;;
45650;SDS011;31365;48.858;8.530;2022-09-06T13:28:23;4.93;;;1.77;;
45650;SDS011;31365;48.858;8.530;2022-09-06T13:31:00;6.25;;;2.15;;
45650;SDS011;31365;48.858;8.530;2022-09-06T13:33:32;4.55;;;1.83;;
45650;SDS011;31365;48.858;8.530;2022-09-06T13:36:05;4.68;;;2.20;;
45650;SDS011;31365;48.858;8.530;2022-09-06T13:38:49;4.03;;;1.75;;
45650;SDS011;31365;48.858;8.530;2022-09-06T13:41:37;4.50;;;1.88;;
45650;SDS011;31365;48.858;8.530;2022-09-06T13:44:18;2.83;;;1.52;;
45650;SDS011;31365;48.858;8.530;2022-09-06T13:46:56;2.90;;;2.00;;
45650;SDS011;31365;48.858;8.530;2022-09-06T13:49:25;4.68;;;1.95;;
45650;SDS011;31365;48.858;8.530;2022-09-06T13:51:56;5.15;;;2.28;;
45650;SDS011;31365;48.858;8.530;2022-09-06T13:54:29;3.15;;;1.33;;
45650;SDS011;31365;48.858;8.530;2022-09-06T13:56:58;2.70;;;1.70;;
45650;SDS011;31365;48.858;8.530;2022-09-06T13:59:29;4.38;;;1.70;;
45650;SDS011;31365;48.858;8.530;2022-09-06T14:01:59;5.63;;;1.90;;
45650;SDS011;31365;48.858;8.530;2022-09-06T14:04:30;3.80;;;1.85;;
45650;SDS011;31365;48.858;8.530;2022-09-06T14:06:59;5.35;;;1.80;;
45650;SDS011;31365;48.858;8.530;2022-09-06T14:09:29;3.85;;;1.90;;
45650;SDS011;31365;48.858;8.530;2022-09-06T14:12:00;2.17;;;1.40;;
45650;SDS011;31365;48.858;8.530;2022-09-06T14:14:30;3.58;;;1.65;;
45650;SDS011;31365;48.858;8.530;2022-09-06T14:16:58;2.83;;;1.58;;
45650;SDS011;31365;48.858;8.530;2022-09-06T14:19:27;5.90;;;1.65;;
45650;SDS011;31365;48.858;8.530;2022-09-06T14:21:56;3.33;;;1.50;;
45650;SDS011;31365;48.858;8.530;2022-09-06T14:24:24;4.70;;;2.00;;
45650;SDS011;31365;48.858;8.530;2022-09-06T14:26:52;4.25;;;1.70;;
45650;SDS011;31365;48.858;8.530;2022-09-06T14:29:21;2.67;;;1.48;;
45650;SDS011;31365;48.858;8.530;2022-09-06T14:31:51;2.42;;;1.48;;
45650;SDS011;31365;48.858;8.530;2022-09-06T14:34:19;4.18;;;1.60;;
45650;SDS011;31365;48.858;8.530;2022-09-06T14:36:47;4.90;;;1.67;;
45650;SDS011;31365;48.858;8.530;2022-09-06T14:39:16;5.70;;;1.88;;
45650;SDS011;31365;48.858;8.530;2022-09-06T14:41:45;2.83;;;1.52;;
45650;SDS011;31365;48.858;8.530;2022-09-06T14:44:14;1.73;;;1.40;;
45650;SDS011;31365;48.858;8.530;2022-09-06T14:46:42;16.92;;;3.38;;
45650;SDS011;31365;48.858;8.530;2022-09-06T14:49:14;5.60;;;1.83;;
45650;SDS011;31365;48.858;8.530;2022-09-06T14:51:43;3.28;;;1.75;;
45650;SDS011;31365;48.858;8.530;2022-09-06T14:54:12;3.42;;;1.40;;
45650;SDS011;31365;48.858;8.530;2022-09-06T14:56:41;2.58;;;1.40;;
45650;SDS011;31365;48.858;8.530;2022-09-06T14:59:10;4.80;;;1.88;;
45650;SDS011;31365;48.858;8.530;2022-09-06T15:01:39;1.65;;;1.40;;
45650;SDS011;31365;48.858;8.530;2022-09-06T15:04:08;2.50;;;1.63;;
45650;SDS011;31365;48.858;8.530;2022-09-06T15:06:39;4.28;;;1.92;;
45650;SDS011;31365;48.858;8.530;2022-09-06T15:09:12;5.10;;;2.08;;
45650;SDS011;31365;48.858;8.530;2022-09-06T15:11:42;4.05;;;1.70;;
45650;SDS011;31365;48.858;8.530;2022-09-06T15:14:14;3.03;;;1.63;;
45650;SDS011;31365;48.858;8.530;2022-09-06T15:16:46;3.47;;;2.03;;
45650;SDS011;31365;48.858;8.530;2022-09-06T15:19:21;3.65;;;1.60;;
45650;SDS011;31365;48.858;8.530;2022-09-06T15:21:53;7.45;;;1.70;;
45650;SDS011;31365;48.858;8.530;2022-09-06T15:24:22;2.83;;;1.70;;
45650;SDS011;31365;48.858;8.530;2022-09-06T15:26:51;2.60;;;1.90;;
45650;SDS011;31365;48.858;8.530;2022-09-06T15:29:21;4.47;;;2.15;;
45650;SDS011;31365;48.858;8.530;2022-09-06T15:31:49;4.90;;;2.22;;
45650;SDS011;31365;48.858;8.530;2022-09-06T15:34:18;5.25;;;1.70;;
45650;SDS011;31365;48.858;8.530;2022-09-06T15:36:49;4.78;;;1.80;;
45650;SDS011;31365;48.858;8.530;2022-09-06T15:39:20;4.05;;;2.13;;
45650;SDS011;31365;48.858;8.530;2022-09-06T15:41:49;2.33;;;1.73;;
45650;SDS011;31365;48.858;8.530;2022-09-06T15:44:18;6.90;;;2.17;;
45650;SDS011;31365;48.858;8.530;2022-09-06T15:46:48;5.18;;;1.90;;
45650;SDS011;31365;48.858;8.530;2022-09-06T15:49:20;5.68;;;1.98;;
45650;SDS011;31365;48.858;8.530;2022-09-06T15:51:54;4.80;;;1.83;;
45650;SDS011;31365;48.858;8.530;2022-09-06T15:54:25;3.47;;;2.00;;
45650;SDS011;31365;48.858;8.530;2022-09-06T15:57:12;4.90;;;2.33;;
45650;SDS011;31365;48.858;8.530;2022-09-06T15:59:43;5.22;;;2.20;;